Time;durP1;ratioP1;P1;durP2;ratioP2;P2;SDS_P1;SDS_P2;PMS_P1;PMS_P2;Temp;Humidity;BMP_temperature;BMP_pressure;BME280_temperature;BME280_humidity;BME280_pressure;Samples;Min_cycle;Max_cycle;Signal;HPM_P1;HPM_P2
2021/09/26 00:00:26;;;;;;;13.47;12.23;;;15.70;99.90;;;;;;4987119;28;20433;-93
2021/09/26 00:03:52;;;;;;;12.13;11.27;;;16.00;99.90;;;;;;4982789;28;20413;-94
2021/09/26 00:22:56;;;;;;;12.70;11.63;;;15.30;99.90;;;;;;5178064;23;20529;-93
2021/09/26 00:41:16;;;;;;;12.23;11.03;;;15.10;99.90;;;;;;5557759;23;20494;-94
2021/09/26 04:00:15;;;;;;;8.83;8.20;;;16.10;99.90;;;;;;5558911;23;20488;-95
2021/09/26 04:02:49;;;;;;;9.57;8.90;;;16.50;99.90;;;;;;4984841;28;20556;-94
2021/09/26 04:08:14;;;;;;;;;;;;;;;;;;;;;
2021/09/26 04:50:58;;;;;;;9.03;8.53;;;16.50;99.90;;;;;;4088745;23;20755;-94
2021/09/26 04:56:50;;;;;;;9.07;8.57;;;16.60;99.90;;;;;;5545700;23;20473;-95
2021/09/26 04:59:23;;;;;;;9.67;8.67;;;16.60;99.90;;;;;;4981495;28;20461;-95
2021/09/26 05:02:03;;;;;;;9.00;8.50;;;15.90;99.90;;;;;;4982747;28;20798;-94
2021/09/26 05:04:30;;;;;;;8.63;7.93;;;17.60;99.90;;;;;;4998759;28;20413;-96
2021/09/26 05:06:59;;;;;;;8.80;8.20;;;16.70;99.90;;;;;;4982277;28;20570;-94
2021/09/26 05:14:40;;;;;;;8.43;7.93;;;16.80;99.90;;;;;;5544081;23;20472;-93
2021/09/26 05:19:53;;;;;;;9.20;8.60;;;17.00;99.90;;;;;;5254286;23;20481;-94
2021/09/26 05:22:34;;;;;;;10.37;9.57;;;17.40;99.90;;;;;;5660206;23;20464;-96
2021/09/26 05:25:05;;;;;;;9.33;8.73;;;18.20;99.90;;;;;;4980948;28;20441;-95
2021/09/26 05:27:46;;;;;;;8.40;7.83;;;16.70;99.50;;;;;;4997126;28;20482;-93
2021/09/26 05:30:15;;;;;;;9.47;8.87;;;17.20;99.90;;;;;;4982334;28;20522;-95
2021/09/26 05:32:44;;;;;;;9.23;8.50;;;17.70;99.90;;;;;;4979857;28;20434;-95
2021/09/26 05:35:17;;;;;;;9.67;8.77;;;17.30;99.90;;;;;;4979082;28;20497;-94
2021/09/26 05:38:09;;;;;;;9.10;8.57;;;17.20;99.90;;;;;;4972478;28;20468;-94
2021/09/26 05:41:01;;;;;;;9.43;8.83;;;17.20;99.90;;;;;;4993986;28;20464;-96
2021/09/26 05:43:38;;;;;;;10.30;9.50;;;17.30;99.90;;;;;;4980422;28;20429;-95
2021/09/26 05:46:06;;;;;;;10.47;9.67;;;16.80;99.90;;;;;;4996593;28;20410;-95
2021/09/26 05:48:36;;;;;;;10.43;9.73;;;18.00;99.90;;;;;;4979933;28;20409;-95
2021/09/26 05:51:09;;;;;;;11.30;9.30;;;17.30;99.90;;;;;;4979235;28;20166;-95
2021/09/26 05:53:41;;;;;;;10.97;9.73;;;17.70;99.90;;;;;;4990217;28;20436;-96
2021/09/26 05:56:09;;;;;;;9.80;9.10;;;17.40;99.90;;;;;;4980686;28;20436;-96
2021/09/26 05:59:01;;;;;;;8.93;8.30;;;17.50;99.90;;;;;;4994646;28;20468;-96
2021/09/26 06:01:36;;;;;;;10.10;9.20;;;18.10;99.90;;;;;;4962038;28;20445;-94
2021/09/26 06:04:03;;;;;;;10.43;9.73;;;17.30;99.90;;;;;;4986742;28;20415;-95
2021/09/26 06:06:38;;;;;;;9.83;9.00;;;17.60;99.90;;;;;;4979892;28;20418;-95
2021/09/26 06:09:12;;;;;;;8.77;8.27;;;17.50;99.90;;;;;;4995820;28;20177;-95
2021/09/26 06:12:22;;;;;;;10.30;9.50;;;18.80;99.90;;;;;;4962292;28;20433;-95
2021/09/26 06:14:50;;;;;;;10.23;9.43;;;17.00;99.90;;;;;;4977797;28;20429;-95
2021/09/26 06:17:19;;;;;;;9.13;8.60;;;19.60;99.90;;;;;;4962716;28;20402;-92
2021/09/26 06:19:52;;;;;;;9.70;9.10;;;19.30;99.90;;;;;;4992029;28;20437;-94
2021/09/26 06:22:24;;;;;;;10.17;9.20;;;18.10;99.90;;;;;;4971178;28;20828;-93
2021/09/26 06:24:53;;;;;;;8.80;8.13;;;18.70;99.90;;;;;;4960398;28;20444;-94
2021/09/26 06:27:30;;;;;;;8.63;8.03;;;18.30;99.90;;;;;;4993036;28;20413;-94
2021/09/26 06:29:56;;;;;;;8.63;7.93;;;18.70;99.70;;;;;;4974861;28;20457;-95
2021/09/26 06:32:25;;;;;;;7.80;7.20;;;18.40;99.90;;;;;;4971168;28;20428;-95
2021/09/26 06:34:53;;;;;;;7.50;7.20;;;20.20;98.40;;;;;;4972171;28;20433;-94
2021/09/26 06:37:19;;;;;;;8.27;7.83;;;21.40;98.50;;;;;;4957764;28;20512;-93
2021/09/26 06:39:50;;;;;;;8.53;8.00;;;21.70;97.80;;;;;;4968002;28;20422;-93
2021/09/26 06:42:16;;;;;;;7.37;6.93;;;;;;;;;;4966747;28;20248;-93
2021/09/26 06:44:44;;;;;;;8.37;7.97;;;;;;;;;;4972373;28;20917;-94
2021/09/26 06:47:13;;;;;;;8.60;7.90;;;;;;;;;;4978636;28;20440;-92
2021/09/26 06:49:39;;;;;;;8.23;7.73;;;;;;;;;;4993361;28;20409;-94
2021/09/26 06:52:06;;;;;;;8.27;7.83;;;;;;;;;;4974168;28;20409;-95
2021/09/26 06:54:32;;;;;;;8.87;8.37;;;;;;;;;;4979133;28;20429;-93
2021/09/26 06:57:06;;;;;;;7.90;7.40;;;;;;;;;;4979748;28;20394;-94
2021/09/26 06:59:32;;;;;;;8.40;7.93;;;;;;;;;;4976240;28;20425;-93
2021/09/26 07:02:25;;;;;;;9.37;8.57;;;;;;;;;;4972733;28;20516;-94
2021/09/26 07:04:54;;;;;;;8.47;7.93;;;;;;;;;;4985758;28;20425;-95
2021/09/26 07:07:23;;;;;;;8.27;7.77;;;;;;;;;;4971701;28;20891;-94
2021/09/26 07:09:50;;;;;;;8.90;8.37;;;;;;;;;;4990286;28;20409;-94
2021/09/26 07:12:16;;;;;;;8.97;8.30;;;;;;;;;;4971710;28;20421;-92
2021/09/26 07:14:51;;;;;;;10.30;9.50;;;;;;;;;;4975089;28;20448;-94
2021/09/26 07:17:20;;;;;;;8.73;7.93;;;;;;;;;;4973836;28;20425;-92
2021/09/26 07:19:46;;;;;;;7.70;7.17;;;;;;;;;;4974468;28;20932;-92
2021/09/26 07:22:12;;;;;;;8.90;8.20;;;;;;;;;;4973503;28;21076;-92
2021/09/26 07:27:25;;;;;;;9.43;8.53;;;;;;;;;;4995213;28;20408;-94
2021/09/26 07:29:54;;;;;;;9.20;8.63;;;;;;;;;;4974335;28;20920;-95
2021/09/26 07:32:20;;;;;;;9.47;8.67;;;;;;;;;;4972990;28;20417;-94
2021/09/26 07:34:46;;;;;;;9.20;8.60;;;;;;;;;;4974197;28;20425;-91
2021/09/26 07:37:15;;;;;;;6.73;6.40;;;;;;;;;;4973118;28;20424;-93
2021/09/26 07:39:46;;;;;;;8.43;7.87;;;;;;;;;;4974565;28;20421;-93
2021/09/26 07:42:14;;;;;;;8.67;8.17;;;;;;;;;;4974961;28;20909;-92
2021/09/26 07:44:48;;;;;;;8.87;8.17;;;;;;;;;;4971221;28;20479;-93
2021/09/26 07:47:14;;;;;;;8.83;8.23;;;;;;;;;;4970548;28;20424;-93
2021/09/26 07:49:40;;;;;;;8.43;7.80;;;;;;;;;;4971558;28;20425;-94
2021/09/26 07:52:30;;;;;;;10.03;9.00;;;;;;;;;;4991326;28;20429;-95
2021/09/26 07:54:56;;;;;;;8.83;8.23;;;;;;;;;;4974780;28;20499;-91
2021/09/26 07:57:23;;;;;;;8.30;7.80;;;;;;;;;;4969160;28;20468;-90
2021/09/26 07:59:51;;;;;;;9.87;9.00;;;;;;;;;;5106341;23;20488;-93
2021/09/26 08:02:20;;;;;;;9.93;9.13;;;21.60;84.10;;;;;;4979929;28;20453;-94
2021/09/26 08:15:47;;;;;;;7.43;7.03;;;24.50;71.70;;;;;;5220598;23;20495;-93
2021/09/26 08:19:17;;;;;;;7.40;6.93;;;26.50;76.40;;;;;;5183446;23;20509;-94
2021/09/26 08:22:17;;;;;;;;;;;;;;;;;;;;;
2021/09/26 08:25:10;;;;;;;7.67;7.37;;;26.60;67.80;;;;;;4971253;28;20426;-94
2021/09/26 08:28:04;;;;;;;7.67;7.13;;;26.30;66.70;;;;;;4971105;28;20450;-93
2021/09/26 08:30:40;;;;;;;;;;;;;;;;;;;;;
2021/09/26 08:33:19;;;;;;;;;;;;;;;;;;;;;
2021/09/26 08:41:58;;;;;;;;;;;;;;;;;;;;;
2021/09/26 09:08:35;;;;;;;;;;;;;;;;;;;;;
2021/09/26 09:13:46;;;;;;;7.03;6.73;;;;;;;;;;5167568;23;20484;-94
2021/09/26 09:16:20;;;;;;;8.20;7.60;;;;;;;;;;4987978;28;20436;-94
2021/09/26 09:18:50;;;;;;;7.00;6.70;;;;;;;;;;4969608;28;20472;-93
2021/09/26 09:21:21;;;;;;;6.70;6.40;;;;;;;;;;4971805;28;20929;-92
2021/09/26 09:23:50;;;;;;;7.43;6.80;;;;;;;;;;4969334;28;20413;-95
2021/09/26 09:26:37;;;;;;;7.23;6.83;;;;;;;;;;4970360;28;20410;-94
2021/09/26 09:29:07;;;;;;;6.67;6.37;;;;;;;;;;4986735;28;20826;-94
2021/09/26 09:31:34;;;;;;;5.90;5.70;;;;;;;;;;4970532;28;20418;-94
2021/09/26 09:34:04;;;;;;;6.43;6.00;;;;;;;;;;4970912;28;20410;-92
2021/09/26 09:36:31;;;;;;;5.30;5.20;;;;;;;;;;4985926;28;20393;-93
2021/09/26 09:38:59;;;;;;;6.20;5.90;;;;;;;;;;4966401;28;20457;-95
2021/09/26 09:41:40;;;;;;;5.67;5.47;;;;;;;;;;4965668;28;20405;-95
2021/09/26 09:44:07;;;;;;;5.73;5.63;;;;;;;;;;4964833;28;20453;-95
2021/09/26 09:46:37;;;;;;;5.53;5.40;;;;;;;;;;4964583;28;20760;-93
2021/09/26 09:49:22;;;;;;;5.80;5.60;;;;;;;;;;4966314;28;20498;-92
2021/09/26 09:51:59;;;;;;;6.27;5.97;;;;;;;;;;4966503;28;20424;-93
2021/09/26 09:54:46;;;;;;;5.60;5.23;;;;;;;;;;4965712;28;20402;-93
2021/09/26 09:57:31;;;;;;;5.90;5.60;;;;;;;;;;4985081;28;20468;-94
2021/09/26 09:59:57;;;;;;;5.70;5.40;;;;;;;;;;4970974;28;20408;-95
2021/09/26 10:02:54;;;;;;;;;;;;;;;;;;;;;
2021/09/26 10:05:42;;;;;;;6.57;6.37;;;;;;;;;;4987821;28;20505;-93
2021/09/26 10:11:20;;;;;;;5.97;5.47;;;;;;;;;;4974931;28;20421;-91
2021/09/26 10:13:48;;;;;;;6.27;5.97;;;;;;;;;;4968168;28;20524;-92
2021/09/26 10:16:18;;;;;;;6.23;5.80;;;;;;;;;;4968975;28;20405;-96
2021/09/26 10:18:47;;;;;;;6.83;6.33;;;;;;;;;;4966400;28;20499;-92
2021/09/26 10:21:13;;;;;;;6.87;6.27;;;;;;;;;;4961211;28;20414;-89
2021/09/26 10:23:59;;;;;;;6.37;6.07;;;;;;;;;;4988762;28;20410;-92
2021/09/26 10:26:37;;;;;;;6.17;5.97;;;;;;;;;;4970038;28;20401;-90
2021/09/26 10:29:04;;;;;;;23.83;22.33;;;;;;;;;;4970461;28;20421;-90
2021/09/26 10:31:34;;;;;;;45.90;42.53;;;;;;;;;;4967596;28;20436;-89
2021/09/26 10:34:03;;;;;;;6.20;6.00;;;;;;;;;;4985745;28;20417;-89
2021/09/26 10:36:31;;;;;;;12.13;10.97;;;;;;;;;;4985062;28;20464;-92
2021/09/26 10:38:59;;;;;;;5.10;4.90;;;;;;;;;;4965909;28;20508;-90
2021/09/26 10:41:25;;;;;;;5.73;5.50;;;;;;;;;;4968148;28;20433;-93
2021/09/26 10:43:52;;;;;;;5.27;4.87;;;;;;;;;;4984550;28;20409;-92
2021/09/26 10:46:23;;;;;;;5.40;5.20;;;;;;;;;;4960833;28;20428;-91
2021/09/26 10:49:01;;;;;;;6.03;5.70;;;;;;;;;;4959515;28;20976;-88
2021/09/26 10:51:44;;;;;;;6.30;5.97;;;;;;;;;;4977884;28;20436;-90
2021/09/26 10:54:23;;;;;;;6.07;5.67;;;;;;;;;;4962290;28;20421;-88
2021/09/26 10:57:18;;;;;;;6.03;5.70;;;;;;;;;;4960687;28;20406;-90
2021/09/26 10:59:46;;;;;;;6.03;5.47;;;;;;;;;;4955145;28;20442;-90
2021/09/26 11:02:24;;;;;;;5.97;5.50;;;;;;;;;;4977051;28;20413;-91
2021/09/26 11:04:54;;;;;;;6.03;5.73;;;;;;;;;;4961318;28;20916;-93
2021/09/26 11:07:21;;;;;;;6.10;5.70;;;;;;;;;;4960477;28;20476;-89
2021/09/26 11:09:55;;;;;;;5.30;4.90;;;;;;;;;;4978090;28;20892;-88
2021/09/26 11:12:36;;;;;;;5.70;5.20;;;;;;;;;;4962177;28;20485;-85
2021/09/26 11:15:05;;;;;;;5.83;5.43;;;;;;;;;;4979305;28;20444;-90
2021/09/26 11:17:45;;;;;;;5.53;5.03;;;;;;;;;;4961052;28;20501;-92
2021/09/26 11:20:12;;;;;;;4.83;4.63;;;;;;;;;;4961620;28;20921;-88
2021/09/26 11:22:38;;;;;;;5.20;4.90;;;;;;;;;;4980140;28;20417;-92
2021/09/26 11:25:11;;;;;;;5.67;5.40;;;;;;;;;;4980869;28;20489;-86
2021/09/26 11:27:38;;;;;;;10.03;9.53;;;;;;;;;;4979176;28;20814;-90
2021/09/26 11:30:10;;;;;;;4.90;4.60;;;;;;;;;;4981988;28;20416;-92
2021/09/26 11:32:36;;;;;;;4.13;4.03;;;;;;;;;;4980157;28;20397;-89
2021/09/26 11:35:23;;;;;;;4.83;4.37;;;;;;;;;;4963326;28;20402;-90
2021/09/26 11:37:51;;;;;;;5.10;4.83;;;;;;;;;;4961648;28;20983;-91
2021/09/26 11:40:37;;;;;;;4.67;4.37;;;;;;;;;;4981411;28;20425;-93
2021/09/26 11:43:13;;;;;;;5.00;4.70;;;;;;;;;;4980422;28;20416;-89
2021/09/26 11:45:39;;;;;;;4.40;4.10;;;;;;;;;;4962926;28;20494;-90
2021/09/26 11:48:08;;;;;;;4.30;4.00;;;;;;;;;;4962757;28;20503;-88
2021/09/26 11:50:35;;;;;;;4.30;4.20;;;;;;;;;;4981913;28;20410;-86
2021/09/26 11:53:01;;;;;;;4.70;4.50;;;;;;;;;;4962328;28;20901;-89
2021/09/26 11:55:34;;;;;;;4.03;3.77;;;;;;;;;;4963642;28;20421;-87
2021/09/26 11:58:01;;;;;;;3.67;3.37;;;;;;;;;;4980869;28;20457;-89
2021/09/26 12:00:28;;;;;;;4.97;4.70;;;;;;;;;;4978466;28;20472;-89
2021/09/26 12:02:54;;;;;;;3.50;3.40;;;;;;;;;;4979777;28;20406;-89
2021/09/26 12:05:36;;;;;;;3.80;3.67;;;;;;;;;;4961128;28;20480;-90
2021/09/26 12:08:03;;;;;;;4.17;4.07;;;;;;;;;;4961243;28;20470;-87
2021/09/26 12:10:30;;;;;;;4.00;3.70;;;;;;;;;;4962838;28;20417;-91
2021/09/26 12:12:56;;;;;;;4.90;4.60;;;;;;;;;;4962447;28;20540;-88
2021/09/26 12:15:25;;;;;;;4.03;3.90;;;;;;;;;;4978373;28;20417;-87
2021/09/26 12:17:54;;;;;;;4.50;4.20;;;;;;;;;;4960740;28;20476;-87
2021/09/26 12:20:21;;;;;;;3.23;3.13;;;;;;;;;;4961342;28;20723;-89
2021/09/26 12:22:52;;;;;;;4.90;4.50;;;;;;;;;;4962374;28;20455;-89
2021/09/26 12:25:35;;;;;;;4.20;4.00;;;;;;;;;;4962140;28;20954;-87
2021/09/26 12:28:04;;;;;;;3.70;3.60;;;;;;;;;;4963860;28;20430;-88
2021/09/26 12:30:46;;;;;;;7.00;4.10;;;;;;;;;;4982406;28;20401;-90
2021/09/26 12:33:23;;;;;;;8.50;7.67;;;27.10;50.70;;;;;;4963980;28;20432;-87
2021/09/26 12:36:01;;;;;;;4.20;4.00;;;27.00;51.30;;;;;;4963950;28;20492;-91
2021/09/26 12:38:41;;;;;;;8.33;4.30;;;26.20;51.50;;;;;;4963481;28;20468;-85
2021/09/26 12:41:22;;;;;;;3.83;3.70;;;26.90;52.40;;;;;;4961074;28;20516;-88
2021/09/26 12:43:55;;;;;;;3.83;3.50;;;26.50;52.20;;;;;;4982834;28;20508;-90
2021/09/26 12:46:25;;;;;;;6.00;3.80;;;26.40;52.40;;;;;;4963872;28;20459;-89
2021/09/26 12:48:51;;;;;;;3.60;3.40;;;27.00;53.30;;;;;;4980383;28;20449;-90
2021/09/26 12:51:34;;;;;;;4.00;3.80;;;26.10;52.90;;;;;;4961930;28;20828;-90
2021/09/26 12:54:04;;;;;;;4.23;4.03;;;26.80;53.50;;;;;;4968756;28;20421;-88
2021/09/26 12:56:36;;;;;;;3.60;3.50;;;26.60;53.80;;;;;;4966603;28;20487;-89
2021/09/26 12:59:23;;;;;;;3.07;3.00;;;26.00;53.10;;;;;;4981829;28;20465;-90
2021/09/26 13:02:29;;;;;;;4.20;3.37;;;26.20;53.30;;;;;;4962562;28;20471;-89
2021/09/26 13:05:11;;;;;;;4.93;4.63;;;26.10;52.90;;;;;;4941906;28;20499;-91
2021/09/26 13:07:37;;;;;;;4.67;3.90;;;25.90;53.40;;;;;;4964147;28;20421;-92
2021/09/26 13:10:12;;;;;;;3.00;2.87;;;26.20;56.10;;;;;;4965418;28;20420;-90
2021/09/26 13:12:43;;;;;;;5.37;3.43;;;25.90;54.20;;;;;;4979137;28;20525;-88
2021/09/26 13:15:34;;;;;;;5.00;3.47;;;26.30;53.90;;;;;;4962527;28;20793;-87
2021/09/26 13:18:14;;;;;;;4.33;3.97;;;25.90;53.80;;;;;;4980156;28;20488;-89
2021/09/26 13:20:41;;;;;;;3.47;3.17;;;25.70;55.30;;;;;;4962064;28;20464;-89
2021/09/26 13:23:29;;;;;;;3.70;3.40;;;25.60;54.50;;;;;;4961964;28;20425;-88
2021/09/26 13:26:02;;;;;;;4.00;3.57;;;25.60;54.80;;;;;;4961842;28;20444;-90
2021/09/26 13:28:29;;;;;;;4.30;4.20;;;25.60;54.20;;;;;;4981286;28;20462;-88
2021/09/26 13:31:15;;;;;;;6.60;4.70;;;25.60;55.50;;;;;;4962292;28;20509;-88
2021/09/26 13:33:43;;;;;;;4.03;3.77;;;26.40;55.00;;;;;;4961216;28;20418;-88
2021/09/26 13:37:00;;;;;;;4.90;4.47;;;27.40;56.00;;;;;;4960600;28;20759;-87
2021/09/26 13:39:37;;;;;;;5.17;4.60;;;25.50;55.80;;;;;;4961423;28;20465;-88
2021/09/26 13:42:46;;;;;;;4.80;4.43;;;26.50;56.40;;;;;;4980342;28;20484;-89
2021/09/26 13:45:14;;;;;;;3.87;3.57;;;25.40;55.10;;;;;;4949200;28;20425;-88
2021/09/26 13:47:41;;;;;;;8.03;4.20;;;25.40;56.40;;;;;;4960607;28;20917;-88
2021/09/26 13:50:20;;;;;;;;;;;;;;;;;;;;;
2021/09/26 13:52:48;;;;;;;3.97;3.60;;;25.30;55.70;;;;;;4979618;28;20516;-88
2021/09/26 13:55:14;;;;;;;4.47;4.07;;;26.60;58.10;;;;;;4959897;28;20513;-90
2021/09/26 13:57:41;;;;;;;4.10;3.77;;;25.30;56.20;;;;;;4977190;28;20461;-89
2021/09/26 14:00:09;;;;;;;4.07;3.77;;;27.10;57.00;;;;;;4977305;28;20521;-90
2021/09/26 14:03:11;;;;;;;4.47;3.60;;;25.20;56.10;;;;;;4983581;28;20547;-92
2021/09/26 14:05:37;;;;;;;4.40;4.10;;;27.10;57.20;;;;;;4982818;28;20393;-92
2021/09/26 14:08:06;;;;;;;7.90;4.00;;;24.60;56.60;;;;;;4966804;28;20417;-92
2021/09/26 14:10:45;;;;;;;5.00;4.50;;;25.10;55.90;;;;;;4968653;28;20416;-93
2021/09/26 14:13:11;;;;;;;5.10;4.70;;;25.10;56.60;;;;;;4953804;28;20480;-93
2021/09/26 14:15:40;;;;;;;5.77;4.93;;;26.60;58.10;;;;;;4965903;28;20439;-91
2021/09/26 14:18:08;;;;;;;4.93;4.53;;;24.50;57.70;;;;;;4966090;28;20202;-93
2021/09/26 14:20:35;;;;;;;5.00;4.33;;;24.50;58.60;;;;;;4966223;28;20418;-90
2021/09/26 14:23:06;;;;;;;6.07;4.30;;;24.20;57.10;;;;;;4968213;28;20417;-92
2021/09/26 14:25:32;;;;;;;4.60;4.30;;;24.30;57.60;;;;;;4968481;28;20441;-92
2021/09/26 14:27:58;;;;;;;17.97;12.30;;;25.60;59.80;;;;;;4967656;28;20504;-92
2021/09/26 14:30:24;;;;;;;4.93;4.50;;;23.90;59.30;;;;;;4964299;28;20418;-92
2021/09/26 14:32:50;;;;;;;3.93;3.67;;;23.90;60.90;;;;;;4965029;28;20413;-93
2021/09/26 14:35:19;;;;;;;5.30;4.90;;;25.30;61.60;;;;;;4969868;28;20441;-92
2021/09/26 14:37:45;;;;;;;4.00;3.80;;;24.00;58.40;;;;;;4966724;28;20213;-93
2021/09/26 14:40:13;;;;;;;4.40;4.07;;;24.00;60.00;;;;;;4965327;28;20425;-92
2021/09/26 14:42:45;;;;;;;4.40;4.10;;;23.80;59.30;;;;;;4982318;28;20410;-91
2021/09/26 14:45:13;;;;;;;9.43;4.27;;;23.70;59.50;;;;;;4965225;28;20425;-92
2021/09/26 14:47:38;;;;;;;4.13;3.83;;;23.60;59.80;;;;;;4979852;28;20448;-90
2021/09/26 14:50:08;;;;;;;4.80;4.50;;;23.70;61.90;;;;;;4618839;28;9999947;-91
2021/09/26 14:52:36;;;;;;;4.73;4.40;;;23.70;63.90;;;;;;4978414;28;20173;-90
2021/09/26 14:55:04;;;;;;;5.90;5.60;;;24.30;64.20;;;;;;4980232;28;20425;-91
2021/09/26 14:57:29;;;;;;;6.10;5.50;;;24.40;64.10;;;;;;4965272;28;20456;-89
2021/09/26 14:59:55;;;;;;;8.30;6.50;;;23.50;64.10;;;;;;4984009;28;20453;-90
2021/09/26 15:02:23;;;;;;;6.27;5.53;;;23.30;69.10;;;;;;4959536;28;20194;-88
2021/09/26 15:04:49;;;;;;;7.07;6.30;;;23.40;70.30;;;;;;4959532;28;20175;-89
2021/09/26 15:07:15;;;;;;;10.43;8.70;;;22.30;66.90;;;;;;4960216;28;20927;-89
2021/09/26 15:09:41;;;;;;;13.43;8.53;;;24.20;70.10;;;;;;4977623;28;20472;-84
2021/09/26 15:12:08;;;;;;;7.50;6.77;;;23.00;72.50;;;;;;4958580;28;20429;-88
2021/09/26 15:14:34;;;;;;;7.17;6.80;;;23.10;68.90;;;;;;4976137;28;20252;-88
2021/09/26 15:16:59;;;;;;;6.63;6.10;;;23.20;69.70;;;;;;4974879;28;20732;-89
2021/09/26 15:19:25;;;;;;;7.50;6.83;;;24.50;70.60;;;;;;4977451;28;20480;-89
2021/09/26 15:21:51;;;;;;;5.40;5.10;;;21.60;66.80;;;;;;4976373;28;20288;-88
2021/09/26 15:24:19;;;;;;;5.33;4.93;;;23.30;71.40;;;;;;4977349;28;20186;-89
2021/09/26 15:26:45;;;;;;;3.90;3.70;;;24.20;70.70;;;;;;4978526;28;20421;-92
2021/09/26 15:29:11;;;;;;;23.43;20.90;;;23.20;72.10;;;;;;4967357;28;20472;-91
2021/09/26 15:31:44;;;;;;;5.23;5.00;;;24.70;73.50;;;;;;4984250;28;20194;-92
2021/09/26 15:34:10;;;;;;;4.97;4.17;;;24.70;73.20;;;;;;4966137;28;20224;-90
2021/09/26 15:36:35;;;;;;;4.93;4.53;;;23.30;71.20;;;;;;4984679;28;20764;-90
2021/09/26 15:39:06;;;;;;;7.30;4.60;;;24.90;74.20;;;;;;4966646;28;20479;-92
2021/09/26 15:41:32;;;;;;;6.00;5.07;;;23.30;72.00;;;;;;4966475;28;20229;-92
2021/09/26 15:43:57;;;;;;;4.77;4.47;;;25.00;72.30;;;;;;4978498;28;20789;-89
2021/09/26 15:46:25;;;;;;;7.67;5.20;;;23.80;71.70;;;;;;4977557;28;20416;-88
2021/09/26 15:48:51;;;;;;;4.93;4.77;;;23.50;71.50;;;;;;4979409;28;20170;-87
2021/09/26 15:51:17;;;;;;;5.30;4.90;;;23.10;68.40;;;;;;4977007;28;20416;-88
2021/09/26 15:53:45;;;;;;;5.43;4.93;;;24.60;71.00;;;;;;4977105;28;20427;-89
2021/09/26 15:56:14;;;;;;;6.10;4.60;;;23.00;69.00;;;;;;4983147;28;20424;-92
2021/09/26 15:58:42;;;;;;;5.27;4.83;;;23.80;71.70;;;;;;4986095;28;20523;-93
2021/09/26 16:01:16;;;;;;;5.30;4.90;;;23.00;73.20;;;;;;4968781;28;20528;-93
2021/09/26 16:03:47;;;;;;;6.00;5.40;;;23.20;71.90;;;;;;4950304;28;20444;-92
2021/09/26 16:06:13;;;;;;;41.63;37.20;;;24.60;73.80;;;;;;4968863;28;20402;-93
2021/09/26 16:08:42;;;;;;;5.50;5.20;;;24.80;75.50;;;;;;4969749;28;20423;-91
2021/09/26 16:11:09;;;;;;;5.23;4.93;;;24.10;74.20;;;;;;4630370;28;10000044;-91
2021/09/26 16:13:41;;;;;;;5.93;5.33;;;22.90;71.10;;;;;;4974460;28;20220;-92
2021/09/26 16:16:52;;;;;;;5.33;5.10;;;23.90;73.80;;;;;;4987005;28;20559;-91
2021/09/26 16:19:37;;;;;;;5.20;4.90;;;22.60;69.20;;;;;;4970390;28;21309;-91
2021/09/26 16:22:05;;;;;;;8.60;5.77;;;22.20;69.20;;;;;;4989113;28;20424;-92
2021/09/26 16:24:50;;;;;;;6.00;5.70;;;22.20;71.40;;;;;;4974342;28;20452;-90
2021/09/26 16:27:24;;;;;;;5.87;5.40;;;22.70;74.20;;;;;;4985667;28;20928;-89
2021/09/26 16:29:50;;;;;;;5.87;5.60;;;22.60;74.30;;;;;;4991636;28;20257;-89
2021/09/26 16:32:19;;;;;;;5.87;5.67;;;23.20;73.40;;;;;;4993679;28;20417;-91
2021/09/26 16:34:52;;;;;;;5.70;5.43;;;22.40;74.20;;;;;;4991002;28;20489;-92
2021/09/26 16:37:19;;;;;;;5.00;4.70;;;22.40;71.40;;;;;;4987171;28;20417;-90
2021/09/26 16:39:48;;;;;;;5.90;5.63;;;22.90;72.70;;;;;;4988452;28;20442;-93
2021/09/26 16:42:19;;;;;;;6.30;5.70;;;22.40;75.60;;;;;;4989209;28;20402;-91
2021/09/26 16:44:48;;;;;;;6.77;6.27;;;23.50;73.90;;;;;;4985008;28;20460;-92
2021/09/26 16:47:29;;;;;;;6.40;5.87;;;22.50;76.90;;;;;;4977453;28;20416;-89
2021/09/26 16:49:58;;;;;;;6.17;5.77;;;23.40;78.00;;;;;;4974611;28;20410;-92
2021/09/26 16:52:26;;;;;;;6.67;6.17;;;22.40;74.80;;;;;;4953715;28;20521;-91
2021/09/26 16:54:52;;;;;;;6.20;5.77;;;22.50;74.70;;;;;;4987497;28;20488;-91
2021/09/26 16:57:26;;;;;;;6.17;5.87;;;23.70;81.10;;;;;;4990335;28;20417;-89
2021/09/26 16:59:52;;;;;;;6.30;5.67;;;24.90;80.20;;;;;;4949566;28;20451;-92
2021/09/26 17:02:18;;;;;;;6.17;5.87;;;20.80;76.80;;;;;;4978406;28;20421;-92
2021/09/26 17:04:43;;;;;;;6.90;6.30;;;23.80;80.00;;;;;;4973169;28;20989;-92
2021/09/26 17:07:09;;;;;;;6.00;5.70;;;22.00;77.50;;;;;;4975841;28;20278;-90
2021/09/26 17:09:35;;;;;;;7.63;7.03;;;21.90;77.10;;;;;;4975492;28;20268;-87
2021/09/26 17:12:05;;;;;;;6.23;5.93;;;21.90;76.90;;;;;;5001260;28;20192;-93
2021/09/26 17:14:30;;;;;;;7.57;6.87;;;21.80;76.20;;;;;;5006793;28;20216;-89
2021/09/26 17:16:56;;;;;;;8.33;6.80;;;22.80;81.30;;;;;;5008377;28;20427;-92
2021/09/26 17:19:30;;;;;;;7.57;7.10;;;22.20;81.20;;;;;;5008790;28;20688;-91
2021/09/26 17:22:06;;;;;;;;;;;;;;;;;;;;;
2021/09/26 17:24:48;;;;;;;9.10;8.40;;;21.40;79.40;;;;;;4993947;28;20471;-91
2021/09/26 17:27:15;;;;;;;7.73;7.23;;;21.50;78.80;;;;;;5008704;28;20446;-93
2021/09/26 17:29:55;;;;;;;8.80;8.30;;;19.60;77.10;;;;;;5010589;28;20441;-94
2021/09/26 17:32:25;;;;;;;8.03;7.63;;;21.50;77.90;;;;;;5010159;28;20431;-93
2021/09/26 17:34:54;;;;;;;9.87;9.27;;;22.70;80.30;;;;;;5012508;28;20408;-93
2021/09/26 17:37:36;;;;;;;10.07;8.43;;;21.60;78.40;;;;;;4975921;28;20464;-92
2021/09/26 17:41:04;;;;;;;;;;;;;;;;;;;;;
2021/09/26 17:43:48;;;;;;;9.43;8.77;;;21.10;78.20;;;;;;4982888;28;20456;-92
2021/09/26 17:46:19;;;;;;;10.50;9.50;;;21.50;80.20;;;;;;4992519;28;20425;-89
2021/09/26 17:48:45;;;;;;;10.13;9.53;;;21.20;79.80;;;;;;4976582;28;20436;-89
2021/09/26 17:51:14;;;;;;;10.10;9.40;;;23.10;82.40;;;;;;4977366;28;20537;-89
2021/09/26 17:53:40;;;;;;;10.03;9.43;;;21.30;79.40;;;;;;4993549;28;20444;-90
2021/09/26 17:56:06;;;;;;;9.90;9.20;;;21.20;79.40;;;;;;4994411;28;20416;-87
2021/09/26 17:58:32;;;;;;;11.17;10.50;;;23.10;82.90;;;;;;4993660;28;20525;-87
2021/09/26 18:00:59;;;;;;;11.80;10.60;;;22.00;82.20;;;;;;4978470;28;21170;-89
2021/09/26 18:03:28;;;;;;;11.10;10.30;;;22.90;84.60;;;;;;4992681;28;20926;-89
2021/09/26 18:05:54;;;;;;;9.70;9.00;;;21.00;80.90;;;;;;4991630;28;20464;-90
2021/09/26 18:08:23;;;;;;;11.40;10.40;;;20.40;80.00;;;;;;4991559;28;20424;-89
2021/09/26 18:10:50;;;;;;;11.60;10.80;;;22.20;83.30;;;;;;4987621;28;20426;-88
2021/09/26 18:13:22;;;;;;;10.20;9.47;;;22.30;83.40;;;;;;4972672;28;20487;-89
2021/09/26 18:15:48;;;;;;;11.30;10.30;;;22.90;84.90;;;;;;4973255;28;20430;-89
2021/09/26 18:18:20;;;;;;;11.00;10.30;;;22.40;85.30;;;;;;4956960;28;20886;-89
2021/09/26 18:21:06;;;;;;;10.83;10.17;;;21.90;88.40;;;;;;4956064;28;20425;-91
2021/09/26 18:23:39;;;;;;;10.90;10.17;;;21.70;85.30;;;;;;4973253;28;20487;-88
2021/09/26 18:26:08;;;;;;;13.30;11.60;;;21.30;85.00;;;;;;4974431;28;20448;-90
2021/09/26 18:28:34;;;;;;;11.27;10.57;;;22.50;84.80;;;;;;4973413;28;20401;-90
2021/09/26 18:31:04;;;;;;;10.60;9.90;;;21.30;84.90;;;;;;4974104;28;20420;-90
2021/09/26 18:33:37;;;;;;;11.07;10.37;;;20.90;82.90;;;;;;4973240;28;20814;-89
2021/09/26 18:36:06;;;;;;;11.77;11.07;;;22.00;83.30;;;;;;4973005;28;20967;-88
2021/09/26 18:38:36;;;;;;;11.63;10.80;;;21.50;83.40;;;;;;4986107;28;20488;-92
2021/09/26 18:41:11;;;;;;;19.00;17.40;;;22.80;86.90;;;;;;4971759;28;20554;-90
2021/09/26 18:43:38;;;;;;;10.83;10.17;;;20.90;83.80;;;;;;4968644;28;20451;-94
2021/09/26 18:46:05;;;;;;;12.33;11.53;;;21.70;84.60;;;;;;4968101;28;20413;-92
2021/09/26 18:48:52;;;;;;;13.40;12.20;;;19.80;81.90;;;;;;4971079;28;20425;-91
2021/09/26 18:51:32;;;;;;;;;;;;;;;;;;;;;
2021/09/26 18:54:14;;;;;;;12.40;11.23;;;20.80;82.50;;;;;;4987928;28;20433;-92
2021/09/26 18:56:44;;;;;;;11.67;10.67;;;21.60;85.00;;;;;;4988920;28;20421;-92
2021/09/26 18:59:10;;;;;;;13.67;12.67;;;20.70;87.20;;;;;;4972742;28;20473;-92
2021/09/26 19:02:00;;;;;;;13.10;12.10;;;21.60;87.60;;;;;;4973968;28;20497;-92
2021/09/26 19:04:50;;;;;;;13.23;12.10;;;20.30;83.70;;;;;;4971945;28;20253;-91
2021/09/26 19:07:39;;;;;;;14.00;12.70;;;21.10;84.00;;;;;;4988947;28;20525;-92
2021/09/26 19:10:24;;;;;;;14.00;12.77;;;20.90;87.50;;;;;;4970896;28;20429;-93
2021/09/26 19:20:03;;;;;;;12.70;11.67;;;20.60;83.40;;;;;;5097122;23;20543;-94
2021/09/26 19:22:52;;;;;;;13.20;12.20;;;20.70;83.70;;;;;;5177784;23;20509;-93
2021/09/26 19:25:24;;;;;;;13.97;12.77;;;22.40;87.80;;;;;;4969622;28;20454;-94
2021/09/26 19:28:02;;;;;;;13.60;12.60;;;21.90;88.70;;;;;;4966099;29;20414;-92
2021/09/26 19:39:04;;;;;;;13.27;12.33;;;20.50;84.70;;;;;;5636665;23;20479;-91
2021/09/26 19:41:39;;;;;;;15.43;14.10;;;20.40;85.40;;;;;;4972628;28;20520;-93
2021/09/26 19:44:15;;;;;;;14.80;13.70;;;20.50;87.20;;;;;;4972899;28;20440;-92
2021/09/26 19:46:59;;;;;;;;;;;;;;;;;;;;;
2021/09/26 19:49:44;;;;;;;13.00;12.20;;;21.80;90.00;;;;;;4984402;28;20465;-92
2021/09/26 19:52:15;;;;;;;16.20;14.87;;;20.90;88.40;;;;;;4973493;28;20463;-92